Fairbank, IA

9:48 PM CDT on May 24, 2015 (GMT -0500)
Oelwein Municipal | | Change Station
CLOSE
Current Station
Airport
Location: Oelwein,
Elevation: 1076 ft
Nearby Weather Stations

Elev 1076 ft 42.68 °N, 91.97 °W | Updated 13 minutes ago

Overcast
Overcast
64 °F
Feels Like 64 °F
N
9
Wind Variable Wind from ESE

Today
High -- | Low -- °F
--% Chance of Precip.
Yesterday
High -- | Low -- °F
Precip. -- in
5:38 AM 8:32 PM
Waxing Crescent, 44% visible
Pressure 29.80 in
Visibility 3.0 miles
Clouds Overcast 400 ft
Dew Point 64 °F
Humidity 100%
Rainfall 0.45 in
Snow Depth Not available.
UV 0 out of 12
Pollen 3.90 out of 12
Air Quality Not available.
Flu Activity Sporadic
METAR KOLZ 250235Z AUTO 12008KT 3SM BR OVC004 18/18 A2980 RMK AO2

More Conditions Fewer Conditions

Pressure 29.80 in
Visibility 3.0 miles
Clouds Overcast 400 ft
Dew Point 64 °F
Humidity 100%
Rainfall 0.45 in
Snow Depth Not available.
UV 0 out of 12
Pollen 3.90 out of 12
Air Quality Not available.
Flu Activity Sporadic
METAR KOLZ 250235Z AUTO 12008KT 3SM BR OVC004 18/18 A2980 RMK AO2

More Conditions Fewer Conditions

10-Day Weather Forecast

Almanac

Astronomy

May. 24, 2015 Rise Set
Actual Time
Civil Twilight
Nautical Twilight
Astronomical Twilight
Moon
Length of Visible Light
Length of Day
Tomorrow will be .
, % of the Moon is Illuminated

Today's Extremes

State Highs State Lows

Community

WunderPhotos

Upload Photos

1,823,936 photos uploaded!

WunderBlogs® & News

Nearby

Air Quality

  Air Quality AQ Index Pollutant
Not available.

Snow Depth

Station Depth Elevation

Earthquake Activity

City Distance Mag. Time & Date
Minimum magnitude displayed is 2.5.

Coastal Water Temperatures

Place Temperature

Stations

Nearby Weather Stations

Station Location Temp. Windchill Dew Point Humidity Wind Precip. Elev Updated Type